This is the latest recevied weather packets stored in our database for station/object SQ5TM-1. If no packets are shown the sender has not sent any weather packets the latest 10 day(s).
| Time | Temp. | Humidity | Pressure | Rain* | Wind** | Luminosity | Snow |
|---|---|---|---|---|---|---|---|
| 1777572161 | 11.67° C | 39% | 1015 hPa | - | - | 0 W/m² | - |
| 1777571237 | 12.22° C | 39% | 1015 hPa | - | - | 0 W/m² | - |
| 1777570312 | 11.67° C | 38% | 1015 hPa | - | - | 0 W/m² | - |
| 1777569388 | 12.22° C | 38% | 1015 hPa | - | - | 0 W/m² | - |
| 1777568464 | 12.22° C | 38% | 1015 hPa | - | - | 0 W/m² | - |
| 1777567540 | 12.78° C | 37% | 1015 hPa | - | - | 0 W/m² | - |
| 1777566616 | 12.78° C | 37% | 1015 hPa | - | - | 0 W/m² | - |
| 1777565691 | 13.33° C | 35% | 1015 hPa | - | - | 0 W/m² | - |
| 1777564767 | 12.78° C | 35% | 1015 hPa | - | - | 0 W/m² | - |
| 1777563843 | 13.33° C | 35% | 1015 hPa | - | - | 0 W/m² | - |
| 1777562919 | 13.33° C | 35% | 1015 hPa | - | - | 0 W/m² | - |
| 1777561994 | 12.22° C | 35% | 1015 hPa | - | - | 0 W/m² | - |
| 1777561069 | 13.33° C | 34% | 1015 hPa | - | - | 0 W/m² | - |
| 1777560145 | 13.89° C | 32% | 1015 hPa | - | - | 0 W/m² | - |
| 1777559337 | 15.56° C | 30% | 1016 hPa | - | - | 0 W/m² | - |
| 1777558413 | 20.56° C | 26% | 1016 hPa | - | - | 0 W/m² | - |
| 1777557893 | 17.78° C | 28% | 1016 hPa | - | - | 0 W/m² | - |
| 1777556969 | 15° C | 29% | 1016 hPa | - | - | 0 W/m² | - |
| 1777556044 | 14.44° C | 30% | 1016 hPa | - | - | 0 W/m² | - |
| 1777555120 | 16.67° C | 28% | 1016 hPa | - | - | 0 W/m² | - |
| 1777554196 | 15° C | 29% | 1016 hPa | - | - | 0 W/m² | - |
| 1777553271 | 17.78° C | 27% | 1016 hPa | - | - | 0 W/m² | - |
| 1777552347 | 16.11° C | 28% | 1016 hPa | - | - | 0 W/m² | - |
| 1777551423 | 16.11° C | 28% | 1017 hPa | - | - | 0 W/m² | - |
| 1777550649 | 20.56° C | 24% | 1017 hPa | - | - | 0 W/m² | - |
* Rain since midnight (hover to see other rain measurements)
** Current wind speed in m/s (hover to see current wind gust speed)